Time;durP1;ratioP1;P1;durP2;ratioP2;P2;SDS_P1;SDS_P2;PMS_P1;PMS_P2;Temp;Humidity;BMP_temperature;BMP_pressure;BME280_temperature;BME280_humidity;BME280_pressure;Samples;Min_cycle;Max_cycle;Signal;HPM_P1;HPM_P2
2023/08/19 00:01:05;;;;;;;28.20;4.45;;;40.00;51.40;;;;;;5035882;28;20036;-64
2023/08/19 00:03:35;;;;;;;20.65;4.40;;;40.00;51.40;;;;;;5034582;28;20021;-63
2023/08/19 00:06:30;;;;;;;30.95;4.82;;;39.90;51.60;;;;;;5039800;28;20052;-63
2023/08/19 00:08:56;;;;;;;35.85;5.05;;;39.70;51.60;;;;;;5046299;28;20200;-66
2023/08/19 00:11:23;;;;;;;32.70;4.50;;;39.70;51.80;;;;;;5055151;28;20712;-66
2023/08/19 00:13:49;;;;;;;25.50;4.75;;;39.70;51.60;;;;;;5053022;28;20021;-64
2023/08/19 00:16:16;;;;;;;25.00;4.57;;;39.70;51.50;;;;;;5054892;28;20109;-64
2023/08/19 00:18:42;;;;;;;26.95;4.78;;;39.60;49.90;;;;;;5056443;28;20127;-64
2023/08/19 00:21:08;;;;;;;26.42;4.78;;;39.60;49.10;;;;;;5055621;28;20020;-64
2023/08/19 00:23:35;;;;;;;27.17;4.80;;;39.50;49.00;;;;;;5057313;28;20062;-65
2023/08/19 00:26:01;;;;;;;30.70;4.75;;;39.50;49.40;;;;;;5056649;28;20456;-64
2023/08/19 00:28:28;;;;;;;30.80;5.43;;;39.60;49.90;;;;;;5058903;28;20040;-65
2023/08/19 00:30:54;;;;;;;27.30;4.50;;;39.50;50.40;;;;;;5055400;28;20024;-66
2023/08/19 00:33:23;;;;;;;20.67;4.80;;;39.30;50.30;;;;;;5053816;28;20493;-65
2023/08/19 00:35:52;;;;;;;30.27;4.97;;;39.40;50.00;;;;;;5055711;28;20160;-64
2023/08/19 00:38:19;;;;;;;24.10;3.70;;;39.30;49.20;;;;;;5051594;28;20365;-63
2023/08/19 00:40:45;;;;;;;37.72;4.18;;;39.30;48.30;;;;;;5051670;28;20028;-65
2023/08/19 00:43:12;;;;;;;61.42;6.03;;;39.40;47.60;;;;;;5057660;28;20116;-62
2023/08/19 00:45:42;;;;;;;71.18;6.72;;;39.20;47.30;;;;;;5055651;28;20434;-65
2023/08/19 00:48:09;;;;;;;43.42;5.53;;;39.20;47.40;;;;;;5050156;28;20032;-63
2023/08/19 00:50:36;;;;;;;53.40;5.88;;;39.00;47.70;;;;;;5054270;28;20029;-66
2023/08/19 00:53:03;;;;;;;37.08;5.20;;;39.00;47.80;;;;;;5057092;28;20071;-64
2023/08/19 00:55:29;;;;;;;51.88;5.90;;;39.00;47.80;;;;;;5052219;28;20036;-63
2023/08/19 00:57:56;;;;;;;30.27;5.28;;;39.00;47.50;;;;;;5058175;28;20046;-63
2023/08/19 01:00:23;;;;;;;27.50;4.40;;;38.90;48.30;;;;;;5055747;28;20021;-64
2023/08/19 01:02:49;;;;;;;30.58;4.30;;;38.80;48.50;;;;;;5059372;28;20016;-64
2023/08/19 01:05:16;;;;;;;18.83;3.42;;;38.80;44.10;;;;;;5055108;28;20028;-63
2023/08/19 01:07:54;;;;;;;22.73;3.38;;;38.60;42.70;;;;;;5051495;28;20048;-64
2023/08/19 01:10:31;;;;;;;14.52;2.97;;;38.40;42.60;;;;;;5053706;28;20531;-65
2023/08/19 01:13:14;;;;;;;27.08;3.78;;;38.30;42.80;;;;;;5054538;28;20024;-64
2023/08/19 01:15:54;;;;;;;25.98;3.55;;;38.20;43.00;;;;;;5057297;28;20022;-63
2023/08/19 01:18:23;;;;;;;28.92;4.10;;;38.20;43.00;;;;;;5058925;28;20025;-65
2023/08/19 01:20:52;;;;;;;30.70;3.67;;;38.20;43.00;;;;;;5060306;28;20052;-64
2023/08/19 01:23:32;;;;;;;22.02;4.28;;;38.20;42.70;;;;;;5059526;28;20434;-63
2023/08/19 01:25:59;;;;;;;22.70;4.22;;;38.20;41.60;;;;;;5057060;28;20027;-62
2023/08/19 01:28:26;;;;;;;25.75;4.40;;;38.10;41.00;;;;;;5052512;28;20032;-65
2023/08/19 01:30:52;;;;;;;22.45;3.50;;;38.20;41.30;;;;;;5056200;28;20028;-65
2023/08/19 01:33:21;;;;;;;11.55;2.55;;;38.30;41.40;;;;;;5058756;28;20479;-65
2023/08/19 01:36:08;;;;;;;15.63;3.25;;;38.30;41.00;;;;;;5061065;28;20056;-68
2023/08/19 01:38:58;;;;;;;26.58;3.92;;;38.30;41.30;;;;;;5058397;28;20009;-67
2023/08/19 01:41:26;;;;;;;20.10;4.10;;;38.20;41.80;;;;;;5056160;28;20013;-67
2023/08/19 01:43:53;;;;;;;15.85;3.40;;;38.30;43.60;;;;;;5056579;28;20025;-65
2023/08/19 01:46:20;;;;;;;18.40;3.47;;;38.30;42.50;;;;;;5061585;28;20052;-65
2023/08/19 01:48:46;;;;;;;23.25;3.45;;;38.30;42.20;;;;;;5062015;28;20100;-67
2023/08/19 01:51:13;;;;;;;17.67;3.63;;;38.30;42.60;;;;;;5064468;28;20027;-66
2023/08/19 01:53:39;;;;;;;17.08;3.97;;;38.40;42.90;;;;;;5063635;28;20019;-66
2023/08/19 01:56:05;;;;;;;25.02;3.90;;;38.30;44.00;;;;;;5065349;28;20013;-66
2023/08/19 01:58:32;;;;;;;17.88;3.88;;;38.30;43.80;;;;;;5060984;28;20006;-68
2023/08/19 02:00:58;;;;;;;16.95;3.10;;;38.40;44.70;;;;;;5062378;28;20053;-67
2023/08/19 02:03:25;;;;;;;23.38;4.22;;;38.30;44.40;;;;;;5061189;28;20036;-68
2023/08/19 02:05:51;;;;;;;22.83;3.33;;;38.30;44.10;;;;;;5056615;28;20013;-66
2023/08/19 02:08:18;;;;;;;24.08;4.22;;;38.30;44.00;;;;;;5059416;28;20036;-66
2023/08/19 02:10:44;;;;;;;20.92;4.15;;;38.20;43.60;;;;;;5066759;28;20048;-67
2023/08/19 02:13:11;;;;;;;22.67;4.20;;;38.10;43.90;;;;;;5063048;28;20013;-69
2023/08/19 02:15:38;;;;;;;22.48;4.25;;;38.10;44.50;;;;;;5065137;28;20008;-69
2023/08/19 02:18:04;;;;;;;31.67;4.68;;;38.00;45.50;;;;;;5058241;28;20017;-67
2023/08/19 02:20:31;;;;;;;22.42;4.82;;;38.00;46.80;;;;;;5061525;28;20012;-66
2023/08/19 02:23:00;;;;;;;28.05;5.30;;;38.00;46.90;;;;;;5059065;28;20043;-68
2023/08/19 02:25:26;;;;;;;28.60;5.32;;;38.00;53.30;;;;;;5058187;28;20025;-68
2023/08/19 02:27:53;;;;;;;24.05;5.38;;;;;;;;;;5061582;28;20055;-67
2023/08/19 02:30:19;;;;;;;36.03;7.20;;;37.70;58.90;;;;;;5064686;28;20034;-67
2023/08/19 02:32:46;;;;;;;25.40;6.35;;;37.50;62.00;;;;;;5060011;28;20015;-67
2023/08/19 02:35:12;;;;;;;18.95;5.13;;;37.30;65.30;;;;;;5064231;28;20470;-66
2023/08/19 02:37:39;;;;;;;24.23;5.78;;;37.00;66.20;;;;;;5063465;28;20024;-67
2023/08/19 02:40:07;;;;;;;25.15;5.47;;;36.80;66.70;;;;;;5070015;28;20017;-67
2023/08/19 02:42:33;;;;;;;28.02;5.28;;;36.60;66.90;;;;;;5061356;28;20060;-67
2023/08/19 02:45:00;;;;;;;24.23;5.13;;;36.50;67.40;;;;;;5062099;28;20016;-67
2023/08/19 02:47:26;;;;;;;18.83;4.90;;;36.50;68.20;;;;;;5061426;28;20058;-67
2023/08/19 02:49:52;;;;;;;24.17;5.40;;;36.40;69.00;;;;;;5059976;28;20021;-68
2023/08/19 02:52:19;;;;;;;25.75;5.25;;;36.20;69.60;;;;;;5064813;28;20009;-67
2023/08/19 02:54:45;;;;;;;25.40;5.18;;;36.20;70.50;;;;;;5050895;28;20015;-68
2023/08/19 02:57:12;;;;;;;31.63;5.32;;;36.00;72.00;;;;;;5057416;28;20013;-69
2023/08/19 02:59:38;;;;;;;32.53;6.20;;;35.90;74.00;;;;;;5055888;28;20020;-66
2023/08/19 03:02:05;;;;;;;25.40;5.60;;;35.80;76.90;;;;;;5060102;28;20036;-66
2023/08/19 03:04:31;;;;;;;45.08;6.55;;;35.80;78.30;;;;;;5056809;28;20029;-66
2023/08/19 03:06:58;;;;;;;59.17;8.10;;;35.60;81.70;;;;;;5059903;28;20026;-66
2023/08/19 03:09:24;;;;;;;33.03;6.72;;;35.40;83.70;;;;;;5062028;28;20100;-66
2023/08/19 03:11:50;;;;;;;45.30;7.20;;;35.30;85.20;;;;;;5061877;28;20024;-63
2023/08/19 03:14:17;;;;;;;22.40;5.82;;;35.20;86.30;;;;;;5060850;28;20569;-62
2023/08/19 03:16:43;;;;;;;33.03;6.63;;;35.20;86.90;;;;;;5060937;28;20012;-65
2023/08/19 03:19:09;;;;;;;46.33;7.38;;;35.10;87.70;;;;;;5058776;28;20012;-63
2023/08/19 03:21:36;;;;;;;39.08;7.60;;;35.10;88.10;;;;;;5057931;28;20017;-63
2023/08/19 03:24:03;;;;;;;25.70;7.07;;;35.00;89.20;;;;;;5050355;28;20467;-65
2023/08/19 03:26:30;;;;;;;43.38;7.45;;;34.90;90.00;;;;;;5059916;28;20074;-64
2023/08/19 03:28:56;;;;;;;39.90;7.57;;;34.90;90.60;;;;;;5052579;28;20406;-64
2023/08/19 03:31:23;;;;;;;46.65;8.13;;;34.90;91.10;;;;;;5056622;28;20060;-65
2023/08/19 03:33:49;;;;;;;52.92;8.27;;;34.80;91.60;;;;;;5058586;28;20012;-62
2023/08/19 03:36:16;;;;;;;46.38;8.57;;;34.70;92.10;;;;;;5059804;28;20017;-62
2023/08/19 03:38:42;;;;;;;41.35;8.65;;;34.60;92.50;;;;;;5057558;28;20578;-62
2023/08/19 03:41:08;;;;;;;44.28;7.80;;;34.50;93.10;;;;;;5046297;28;20036;-63
2023/08/19 03:43:35;;;;;;;48.22;8.65;;;34.50;93.50;;;;;;5044935;28;20022;-64
2023/08/19 03:46:01;;;;;;;54.60;9.93;;;34.40;93.90;;;;;;5051639;28;20411;-64
2023/08/19 03:48:28;;;;;;;50.72;7.38;;;34.40;94.60;;;;;;5055460;28;20728;-64
2023/08/19 03:50:54;;;;;;;60.65;9.35;;;34.20;95.30;;;;;;5058694;28;20078;-67
2023/08/19 03:53:21;;;;;;;53.72;8.18;;;34.20;95.70;;;;;;5063932;28;20100;-67
2023/08/19 03:55:49;;;;;;;48.53;8.48;;;34.10;96.20;;;;;;5059563;28;20016;-67
2023/08/19 03:58:15;;;;;;;58.30;9.05;;;34.10;96.80;;;;;;5058390;28;20017;-67
2023/08/19 04:00:42;;;;;;;45.97;8.88;;;34.10;97.60;;;;;;5054332;28;20017;-68
2023/08/19 04:03:08;;;;;;;40.08;8.75;;;34.10;98.00;;;;;;5057680;28;20100;-65
2023/08/19 04:05:34;;;;;;;52.05;8.70;;;34.00;98.30;;;;;;5053625;28;20012;-68
2023/08/19 04:08:01;;;;;;;46.53;8.70;;;34.10;98.60;;;;;;5055566;28;20474;-67
2023/08/19 04:10:27;;;;;;;41.28;9.10;;;34.00;98.80;;;;;;5053920;28;20048;-66
2023/08/19 04:12:54;;;;;;;36.78;8.20;;;34.00;99.20;;;;;;5063222;28;20039;-64
2023/08/19 04:15:20;;;;;;;53.58;8.80;;;34.00;99.50;;;;;;5063657;28;20024;-64
2023/08/19 04:17:47;;;;;;;44.60;8.73;;;34.00;99.70;;;;;;5049129;28;20009;-67
2023/08/19 04:20:14;;;;;;;45.08;8.18;;;34.00;99.90;;;;;;5062038;28;20008;-66
2023/08/19 04:22:40;;;;;;;38.42;8.18;;;34.00;99.90;;;;;;5061104;28;20020;-67
2023/08/19 04:25:07;;;;;;;35.22;8.02;;;33.90;99.90;;;;;;5059157;28;20023;-66
2023/08/19 04:27:33;;;;;;;33.17;7.25;;;33.80;99.90;;;;;;5058148;28;20016;-67
2023/08/19 04:30:00;;;;;;;32.45;8.57;;;33.90;99.90;;;;;;5056926;28;20069;-65
2023/08/19 04:32:27;;;;;;;50.25;18.40;;;33.90;99.90;;;;;;5054551;28;20195;-67
2023/08/19 04:34:53;;;;;;;48.67;17.88;;;33.90;99.90;;;;;;5057843;28;20017;-65
2023/08/19 04:37:20;;;;;;;49.10;15.80;;;33.80;99.90;;;;;;5059029;28;20317;-65
2023/08/19 04:39:46;;;;;;;55.60;17.15;;;33.80;99.90;;;;;;5057437;28;20044;-68
2023/08/19 04:42:12;;;;;;;44.17;15.73;;;33.80;99.90;;;;;;5049827;28;20930;-66
2023/08/19 04:44:39;;;;;;;57.40;22.55;;;33.80;99.90;;;;;;5056426;28;20074;-65
2023/08/19 04:47:05;;;;;;;63.90;24.30;;;33.70;99.90;;;;;;5049725;28;20467;-63
2023/08/19 04:49:32;;;;;;;66.85;27.15;;;33.90;99.90;;;;;;5056660;28;20017;-64
2023/08/19 04:51:58;;;;;;;53.63;24.17;;;34.10;99.40;;;;;;5059678;28;20051;-63
2023/08/19 04:54:25;;;;;;;67.93;22.23;;;34.20;98.40;;;;;;5060818;28;20017;-65
2023/08/19 04:56:52;;;;;;;38.17;14.95;;;34.50;98.20;;;;;;5061131;28;20013;-64
2023/08/19 04:59:18;;;;;;;40.53;13.13;;;34.50;98.10;;;;;;5062584;28;20800;-66
2023/08/19 05:01:44;;;;;;;37.10;13.55;;;34.50;98.20;;;;;;5061488;28;20014;-64
2023/08/19 05:04:11;;;;;;;42.35;13.10;;;34.50;98.00;;;;;;5059309;28;20494;-64
2023/08/19 05:06:37;;;;;;;37.97;12.38;;;34.50;98.00;;;;;;5058673;28;20029;-66
2023/08/19 05:09:04;;;;;;;34.40;10.77;;;34.30;98.10;;;;;;5060639;28;20177;-65
2023/08/19 05:11:30;;;;;;;46.95;17.70;;;34.40;98.40;;;;;;5062747;28;20017;-64
2023/08/19 05:13:57;;;;;;;63.83;22.10;;;34.40;98.50;;;;;;5061923;28;20023;-65
2023/08/19 05:16:23;;;;;;;57.10;21.15;;;34.30;98.70;;;;;;5060822;28;20013;-65
2023/08/19 05:19:06;;;;;;;56.53;17.42;;;34.30;98.70;;;;;;5058740;28;20025;-63
2023/08/19 05:21:32;;;;;;;34.78;11.40;;;34.20;98.70;;;;;;5061050;28;20059;-65
2023/08/19 05:23:58;;;;;;;33.92;8.68;;;34.20;98.80;;;;;;5063833;28;20148;-63
2023/08/19 05:26:25;;;;;;;30.45;8.15;;;34.20;99.30;;;;;;5065105;28;20016;-63
2023/08/19 05:28:51;;;;;;;29.60;6.43;;;34.10;99.60;;;;;;5060994;28;20112;-65
2023/08/19 05:31:20;;;;;;;30.67;7.32;;;34.10;99.90;;;;;;5062751;28;20103;-64
2023/08/19 05:33:47;;;;;;;24.65;7.05;;;34.10;99.90;;;;;;5064125;28;20021;-66
2023/08/19 05:36:13;;;;;;;27.48;6.40;;;34.00;99.90;;;;;;5063074;28;20410;-63
2023/08/19 05:38:39;;;;;;;28.70;6.90;;;34.00;99.90;;;;;;5063474;28;20009;-64
2023/08/19 05:41:06;;;;;;;27.70;6.75;;;34.10;99.90;;;;;;5062295;28;20023;-64
2023/08/19 05:43:32;;;;;;;27.70;6.32;;;34.10;99.90;;;;;;5063265;28;20106;-66
2023/08/19 05:45:59;;;;;;;30.60;6.88;;;34.00;99.90;;;;;;5061290;28;20025;-64
2023/08/19 05:48:25;;;;;;;34.50;7.50;;;33.90;99.90;;;;;;5067193;28;20013;-62
2023/08/19 05:50:51;;;;;;;36.10;8.00;;;33.80;99.90;;;;;;5062417;28;20379;-63
2023/08/19 05:53:18;;;;;;;35.45;7.85;;;33.90;99.90;;;;;;5063842;28;20021;-65
2023/08/19 05:55:44;;;;;;;29.98;7.30;;;33.80;99.90;;;;;;5061285;28;20013;-63
2023/08/19 05:58:11;;;;;;;36.53;7.95;;;33.70;99.90;;;;;;5061303;28;20017;-65
2023/08/19 06:00:37;;;;;;;32.83;6.78;;;33.70;99.90;;;;;;5062893;28;20020;-64
2023/08/19 06:03:04;;;;;;;34.28;7.75;;;33.60;99.90;;;;;;5063122;28;20031;-64
2023/08/19 06:05:30;;;;;;;39.22;6.85;;;33.70;99.90;;;;;;5059917;28;20021;-64
2023/08/19 06:07:56;;;;;;;32.17;7.10;;;33.80;99.90;;;;;;5059283;28;20461;-65
2023/08/19 06:10:23;;;;;;;32.28;9.57;;;33.60;99.90;;;;;;5059485;28;20028;-65
2023/08/19 06:12:49;;;;;;;35.63;7.53;;;33.70;99.90;;;;;;5058136;28;20008;-65
2023/08/19 06:15:15;;;;;;;31.23;6.82;;;33.60;99.90;;;;;;5059518;28;20594;-64
2023/08/19 06:17:42;;;;;;;38.67;7.45;;;33.70;99.90;;;;;;5055172;28;20078;-65
2023/08/19 06:20:08;;;;;;;32.58;8.10;;;33.60;99.90;;;;;;5058718;28;20040;-64
2023/08/19 06:22:35;;;;;;;30.35;6.75;;;33.60;99.90;;;;;;5058540;28;20474;-63
2023/08/19 06:25:03;;;;;;;37.00;7.70;;;33.70;99.90;;;;;;5057267;28;20513;-63
2023/08/19 06:27:29;;;;;;;28.88;6.80;;;33.70;99.90;;;;;;5058076;28;20013;-66
2023/08/19 06:29:56;;;;;;;44.33;8.23;;;33.60;99.90;;;;;;5060870;28;20025;-66
2023/08/19 06:32:22;;;;;;;35.72;8.88;;;33.60;99.90;;;;;;5058738;28;20018;-63
2023/08/19 06:34:49;;;;;;;44.53;8.43;;;33.50;99.90;;;;;;5058953;28;20107;-65
2023/08/19 06:37:20;;;;;;;35.35;7.15;;;33.50;99.90;;;;;;5058180;28;20165;-67
2023/08/19 06:39:53;;;;;;;44.88;8.55;;;33.40;99.90;;;;;;5056060;28;20475;-63
2023/08/19 06:42:20;;;;;;;39.15;7.72;;;33.40;99.90;;;;;;5058117;28;20024;-65
2023/08/19 06:44:49;;;;;;;33.60;7.70;;;33.40;99.90;;;;;;5058360;28;20573;-63
2023/08/19 06:47:22;;;;;;;36.03;7.35;;;33.40;99.90;;;;;;5057614;28;20104;-63
2023/08/19 06:49:49;;;;;;;36.15;7.90;;;33.40;99.90;;;;;;5057752;28;20024;-63
2023/08/19 06:52:15;;;;;;;35.90;7.82;;;33.50;99.90;;;;;;5059945;28;20024;-64
2023/08/19 06:54:42;;;;;;;37.45;7.40;;;33.40;99.90;;;;;;5054668;28;20015;-65
2023/08/19 06:57:16;;;;;;;34.05;7.35;;;33.40;99.90;;;;;;5058848;28;20092;-62
2023/08/19 06:59:47;;;;;;;41.67;8.75;;;33.40;99.90;;;;;;5059317;28;20040;-64
2023/08/19 07:02:18;;;;;;;35.53;7.35;;;33.40;99.90;;;;;;5058424;28;20090;-64
2023/08/19 07:04:48;;;;;;;30.10;6.75;;;33.40;99.90;;;;;;5060598;28;20028;-66
2023/08/19 07:07:21;;;;;;;30.02;7.57;;;33.30;99.90;;;;;;5059051;28;20089;-65
2023/08/19 07:09:48;;;;;;;33.63;8.20;;;33.30;99.90;;;;;;5057550;28;20158;-65
2023/08/19 07:12:15;;;;;;;38.67;7.25;;;33.30;99.90;;;;;;5055599;28;20057;-66
2023/08/19 07:14:41;;;;;;;36.15;7.90;;;33.30;99.90;;;;;;5058381;28;20005;-65
2023/08/19 07:17:09;;;;;;;44.15;8.52;;;33.20;99.90;;;;;;5061250;28;20024;-66
2023/08/19 07:19:39;;;;;;;35.17;7.28;;;33.10;99.90;;;;;;5058459;28;20013;-65
2023/08/19 07:22:06;;;;;;;42.45;8.05;;;33.20;99.90;;;;;;5057028;28;20017;-66
2023/08/19 07:24:33;;;;;;;33.80;6.90;;;33.10;99.90;;;;;;5054280;28;20477;-66
2023/08/19 07:27:03;;;;;;;42.10;7.38;;;33.10;99.90;;;;;;5058140;28;20017;-66
2023/08/19 07:29:30;;;;;;;35.67;7.68;;;33.10;99.90;;;;;;5057908;28;20009;-67
2023/08/19 07:31:57;;;;;;;38.35;7.88;;;33.10;99.90;;;;;;5057989;28;20033;-66
2023/08/19 07:34:24;;;;;;;48.72;7.93;;;33.10;99.90;;;;;;5054805;28;20095;-67
2023/08/19 07:36:50;;;;;;;37.78;7.65;;;33.10;99.90;;;;;;5056643;28;20370;-66
2023/08/19 07:39:17;;;;;;;38.50;7.13;;;33.00;99.90;;;;;;5053017;28;20013;-65
2023/08/19 07:41:44;;;;;;;45.53;7.47;;;33.00;99.90;;;;;;5054809;28;20021;-65
2023/08/19 07:44:10;;;;;;;43.42;8.13;;;33.00;99.90;;;;;;5054364;28;20112;-64
2023/08/19 07:46:37;;;;;;;37.67;7.38;;;33.10;99.90;;;;;;5055112;28;20021;-65
2023/08/19 07:49:03;;;;;;;38.88;7.38;;;33.10;99.90;;;;;;5055987;28;20044;-64
2023/08/19 07:51:30;;;;;;;35.47;7.30;;;33.10;99.90;;;;;;5056625;28;20112;-65
2023/08/19 07:53:56;;;;;;;33.08;7.10;;;33.10;99.90;;;;;;5057929;28;20450;-65
2023/08/19 07:56:23;;;;;;;39.20;6.45;;;33.10;99.90;;;;;;5061114;28;20016;-64
2023/08/19 07:58:49;;;;;;;42.60;7.50;;;33.20;99.90;;;;;;5054579;28;20115;-64
2023/08/19 08:01:17;;;;;;;42.25;6.88;;;33.20;99.90;;;;;;5055788;28;20044;-65
2023/08/19 08:03:43;;;;;;;38.33;7.07;;;33.10;99.90;;;;;;5055107;28;20029;-64
2023/08/19 08:06:11;;;;;;;38.85;7.35;;;33.10;99.90;;;;;;5057231;28;20020;-66
2023/08/19 08:08:38;;;;;;;43.53;7.38;;;33.10;99.90;;;;;;5055243;28;20044;-64
2023/08/19 08:11:04;;;;;;;40.17;6.72;;;33.10;99.90;;;;;;5057006;28;20043;-63
2023/08/19 08:13:32;;;;;;;32.83;6.57;;;33.20;99.90;;;;;;5054154;28;20045;-64
2023/08/19 08:16:00;;;;;;;52.90;8.38;;;33.20;99.90;;;;;;5057234;28;20022;-66
2023/08/19 08:18:27;;;;;;;46.92;7.78;;;33.10;99.90;;;;;;5058778;28;20082;-64
2023/08/19 08:20:54;;;;;;;40.75;8.07;;;33.10;99.90;;;;;;5058546;28;20036;-64
2023/08/19 08:23:20;;;;;;;32.92;7.55;;;33.10;99.90;;;;;;5057409;28;20559;-63
2023/08/19 08:25:47;;;;;;;37.42;6.50;;;33.00;99.90;;;;;;5054628;28;20027;-64
2023/08/19 08:28:13;;;;;;;37.33;6.05;;;33.00;99.90;;;;;;5053005;28;20051;-64
2023/08/19 08:30:40;;;;;;;34.47;6.47;;;33.00;99.90;;;;;;5054066;28;20558;-65
2023/08/19 08:33:08;;;;;;;38.22;8.00;;;33.10;99.90;;;;;;5056910;28;20036;-65
2023/08/19 08:35:34;;;;;;;35.50;7.22;;;33.10;99.90;;;;;;5055196;28;20419;-65
2023/08/19 08:38:00;;;;;;;32.40;6.63;;;33.10;99.90;;;;;;5056362;28;20044;-65
2023/08/19 08:40:32;;;;;;;40.85;6.53;;;33.10;99.90;;;;;;5056212;28;20383;-65
2023/08/19 08:43:02;;;;;;;45.08;6.15;;;33.10;99.90;;;;;;5056367;28;20027;-64
2023/08/19 08:45:31;;;;;;;45.20;6.72;;;33.10;99.90;;;;;;5057863;28;20040;-65
2023/08/19 08:48:00;;;;;;;27.65;5.47;;;33.10;99.90;;;;;;5058273;28;20035;-66
2023/08/19 08:50:28;;;;;;;40.33;6.93;;;33.10;99.90;;;;;;5055406;28;20160;-65
2023/08/19 08:52:56;;;;;;;44.92;6.75;;;33.00;99.90;;;;;;5054460;28;20024;-64
2023/08/19 08:55:23;;;;;;;35.75;5.97;;;32.90;99.90;;;;;;5058656;28;20108;-64
2023/08/19 08:57:49;;;;;;;38.95;6.22;;;32.90;99.90;;;;;;5058938;28;20016;-64
2023/08/19 09:00:16;;;;;;;28.95;5.20;;;32.90;99.90;;;;;;5062857;28;20032;-62
2023/08/19 09:02:45;;;;;;;46.08;7.18;;;32.80;99.90;;;;;;5056312;28;20044;-63
2023/08/19 09:05:12;;;;;;;42.30;5.47;;;32.80;99.90;;;;;;5060087;28;20024;-65
2023/08/19 09:07:40;;;;;;;33.47;5.40;;;32.80;99.90;;;;;;5058403;28;20033;-64
2023/08/19 09:10:13;;;;;;;38.00;5.95;;;32.80;99.90;;;;;;5062495;28;20016;-65
2023/08/19 09:12:43;;;;;;;27.00;5.15;;;32.80;99.90;;;;;;5061110;28;20113;-63
2023/08/19 09:15:11;;;;;;;32.58;5.88;;;32.70;99.90;;;;;;5060069;28;20039;-65
2023/08/19 09:17:39;;;;;;;35.83;5.43;;;32.80;99.90;;;;;;5060031;28;20029;-66
2023/08/19 09:20:08;;;;;;;35.47;5.28;;;32.80;99.90;;;;;;5060005;28;20499;-67
2023/08/19 09:22:42;;;;;;;32.95;5.25;;;32.70;99.90;;;;;;5059566;28;20112;-66
2023/08/19 09:25:14;;;;;;;35.80;5.47;;;32.80;99.90;;;;;;5057181;28;20027;-64
2023/08/19 09:27:41;;;;;;;32.35;5.20;;;32.80;99.90;;;;;;5059277;28;20067;-66
2023/08/19 09:30:08;;;;;;;24.90;4.28;;;32.80;99.90;;;;;;5055474;28;20023;-66
2023/08/19 09:32:36;;;;;;;43.85;5.30;;;32.80;99.90;;;;;;5058249;28;20013;-64
2023/08/19 09:35:03;;;;;;;40.03;5.63;;;32.80;99.90;;;;;;5058453;28;20017;-65
2023/08/19 09:37:34;;;;;;;38.08;5.43;;;32.80;99.90;;;;;;5060043;28;20055;-65
2023/08/19 09:40:07;;;;;;;33.40;5.40;;;32.80;99.90;;;;;;5059530;28;20014;-65
2023/08/19 09:42:35;;;;;;;26.83;4.57;;;32.80;99.90;;;;;;5057932;28;20021;-65
2023/08/19 09:45:04;;;;;;;31.40;5.13;;;32.90;99.90;;;;;;5057902;28;20045;-64
2023/08/19 09:47:44;;;;;;;40.03;5.60;;;32.80;99.90;;;;;;5057300;28;20025;-64
2023/08/19 09:50:11;;;;;;;37.33;5.22;;;32.90;99.90;;;;;;5058618;28;20024;-65
2023/08/19 09:52:40;;;;;;;35.38;5.18;;;32.90;99.90;;;;;;5056172;28;20132;-66
2023/08/19 09:55:07;;;;;;;30.80;5.03;;;33.00;99.90;;;;;;5055448;28;20025;-65
2023/08/19 09:57:34;;;;;;;27.23;4.60;;;33.00;99.90;;;;;;5059410;28;20348;-64
2023/08/19 10:00:04;;;;;;;30.17;5.35;;;33.00;99.90;;;;;;5059602;28;20098;-66
2023/08/19 10:02:31;;;;;;;29.17;4.22;;;33.00;99.90;;;;;;5058683;28;20017;-64
2023/08/19 10:04:57;;;;;;;32.10;5.20;;;33.00;99.90;;;;;;5057957;28;20016;-66
2023/08/19 10:07:32;;;;;;;29.35;5.28;;;33.00;99.90;;;;;;5053814;28;20033;-65
2023/08/19 10:10:04;;;;;;;18.50;3.90;;;33.10;99.90;;;;;;5060467;28;20021;-64
2023/08/19 10:12:38;;;;;;;26.88;4.25;;;33.10;99.90;;;;;;5055754;28;20125;-65
2023/08/19 10:15:07;;;;;;;26.27;4.35;;;33.10;99.80;;;;;;5057731;28;20029;-66
2023/08/19 10:17:36;;;;;;;30.83;4.43;;;33.10;99.50;;;;;;5056771;28;20086;-65
2023/08/19 10:20:11;;;;;;;23.13;4.00;;;33.10;99.20;;;;;;5057963;28;20610;-66
2023/08/19 10:22:41;;;;;;;33.42;4.97;;;33.10;99.00;;;;;;5057836;28;20147;-66
2023/08/19 10:25:10;;;;;;;19.08;4.03;;;33.10;98.90;;;;;;5058800;28;20039;-65
2023/08/19 10:27:37;;;;;;;24.30;4.43;;;33.10;98.50;;;;;;5057380;28;20104;-65
2023/08/19 10:30:28;;;;;;;31.42;4.63;;;33.10;98.60;;;;;;5057981;28;20021;-66
2023/08/19 10:32:54;;;;;;;26.17;4.45;;;33.10;98.10;;;;;;5058937;28;20070;-66
2023/08/19 10:35:20;;;;;;;28.20;4.28;;;33.10;97.70;;;;;;5058754;28;20016;-65
2023/08/19 10:37:51;;;;;;;31.75;4.10;;;33.10;97.70;;;;;;5055341;28;20100;-67
2023/08/19 10:40:24;;;;;;;24.88;4.43;;;33.00;94.40;;;;;;5057023;28;20099;-65
2023/08/19 10:43:00;;;;;;;25.98;4.00;;;32.90;92.50;;;;;;5061538;28;20013;-65
2023/08/19 10:45:34;;;;;;;30.90;4.07;;;33.00;92.30;;;;;;5058956;28;20407;-66
2023/08/19 10:48:02;;;;;;;22.30;4.35;;;33.00;91.50;;;;;;5061301;28;20472;-63
2023/08/19 10:50:35;;;;;;;18.38;3.15;;;32.90;89.80;;;;;;5059559;28;20423;-64
2023/08/19 10:53:07;;;;;;;24.58;4.22;;;32.90;87.80;;;;;;5056573;28;20094;-65
2023/08/19 10:55:53;;;;;;;21.90;3.40;;;32.90;86.30;;;;;;5056614;28;20040;-66
2023/08/19 10:58:21;;;;;;;23.65;3.67;;;32.90;84.70;;;;;;5058424;28;20356;-65
2023/08/19 11:00:48;;;;;;;16.35;2.92;;;32.80;83.60;;;;;;5058128;28;20020;-67
2023/08/19 11:03:19;;;;;;;12.50;2.72;;;32.80;83.00;;;;;;5057609;28;20333;-65
2023/08/19 11:05:52;;;;;;;21.50;3.22;;;32.80;81.80;;;;;;5056623;28;20016;-65
2023/08/19 11:08:19;;;;;;;15.20;3.13;;;32.80;82.80;;;;;;5058027;28;20507;-67
2023/08/19 11:10:46;;;;;;;20.38;3.60;;;32.90;82.20;;;;;;5057654;28;20039;-64
2023/08/19 11:13:13;;;;;;;22.80;3.38;;;32.90;82.90;;;;;;5056666;28;20017;-65
2023/08/19 11:15:40;;;;;;;20.73;3.28;;;32.90;82.00;;;;;;5059058;28;20092;-66
2023/08/19 11:18:07;;;;;;;19.45;3.47;;;32.80;81.50;;;;;;5055997;28;20643;-64
2023/08/19 11:20:35;;;;;;;14.77;2.83;;;32.80;81.50;;;;;;5052942;28;20021;-66
2023/08/19 11:23:02;;;;;;;22.27;3.55;;;32.70;81.80;;;;;;5055953;28;20021;-65
2023/08/19 11:25:40;;;;;;;16.35;3.50;;;32.70;82.60;;;;;;5058329;28;20087;-66
2023/08/19 11:28:06;;;;;;;17.85;3.40;;;32.60;82.80;;;;;;5055501;28;20024;-66
2023/08/19 11:30:35;;;;;;;20.63;3.13;;;32.60;83.20;;;;;;5057421;28;20025;-65
2023/08/19 11:33:02;;;;;;;22.70;3.22;;;32.70;83.80;;;;;;5056369;28;20587;-65
2023/08/19 11:35:42;;;;;;;20.67;3.40;;;32.70;83.80;;;;;;5055704;28;20055;-63
2023/08/19 11:38:18;;;;;;;19.80;3.60;;;32.60;83.80;;;;;;5056849;28;20036;-67
2023/08/19 11:40:44;;;;;;;14.23;3.42;;;32.50;85.30;;;;;;5055935;28;20025;-65
2023/08/19 11:43:13;;;;;;;16.40;3.22;;;32.40;87.20;;;;;;5056162;28;21652;-65
2023/08/19 11:45:40;;;;;;;19.25;4.25;;;32.50;89.60;;;;;;5057867;28;20100;-65
2023/08/19 11:48:12;;;;;;;34.65;4.30;;;32.50;90.40;;;;;;5056962;28;20017;-66
2023/08/19 11:50:47;;;;;;;30.77;3.92;;;32.40;91.20;;;;;;5055143;28;20036;-66
2023/08/19 11:53:28;;;;;;;26.43;4.10;;;32.40;91.70;;;;;;5056965;28;20020;-62
2023/08/19 11:55:58;;;;;;;32.83;4.82;;;32.20;92.10;;;;;;5054740;28;20249;-63
2023/08/19 11:58:36;;;;;;;18.17;4.10;;;32.20;92.20;;;;;;5054008;28;20017;-65
2023/08/19 12:01:03;;;;;;;24.70;4.10;;;32.10;92.30;;;;;;5055677;28;20025;-65
2023/08/19 12:03:30;;;;;;;24.33;4.47;;;31.90;92.60;;;;;;5054359;28;20013;-65
2023/08/19 12:05:57;;;;;;;32.65;4.25;;;31.80;92.40;;;;;;5057247;28;20515;-66
2023/08/19 12:08:33;;;;;;;23.30;3.75;;;31.80;92.00;;;;;;5056818;28;20056;-65
2023/08/19 12:11:00;;;;;;;29.20;4.15;;;31.60;91.50;;;;;;5055852;28;20045;-66
2023/08/19 12:13:29;;;;;;;24.70;4.13;;;31.40;91.70;;;;;;5058323;28;20017;-66
2023/08/19 12:15:56;;;;;;;22.33;3.83;;;31.40;92.10;;;;;;5058621;28;20020;-64
2023/08/19 12:18:22;;;;;;;31.98;3.78;;;31.30;92.50;;;;;;5055329;28;20408;-65
2023/08/19 12:20:50;;;;;;;27.08;4.95;;;31.30;92.60;;;;;;5056037;28;20027;-64
2023/08/19 12:23:16;;;;;;;24.90;4.15;;;31.30;92.90;;;;;;5055299;28;20392;-64
2023/08/19 12:25:54;;;;;;;26.35;4.63;;;31.30;92.90;;;;;;5053605;28;20540;-66
2023/08/19 12:28:22;;;;;;;34.50;3.90;;;31.30;93.00;;;;;;5054314;28;20112;-65
2023/08/19 12:30:49;;;;;;;21.48;3.90;;;31.20;92.80;;;;;;5054520;28;20082;-64
2023/08/19 12:33:18;;;;;;;27.42;3.70;;;31.30;93.00;;;;;;5054477;28;20020;-64
2023/08/19 12:35:46;;;;;;;21.65;4.20;;;31.40;92.90;;;;;;5056538;28;20021;-64
2023/08/19 12:38:14;;;;;;;28.42;3.95;;;31.40;92.80;;;;;;5056781;28;20104;-64
2023/08/19 12:40:41;;;;;;;23.58;4.07;;;31.40;92.80;;;;;;5057168;28;20444;-66